Time;durP1;ratioP1;P1;durP2;ratioP2;P2;SDS_P1;SDS_P2;PMS_P1;PMS_P2;Temp;Humidity;BMP_temperature;BMP_pressure;BME280_temperature;BME280_humidity;BME280_pressure;Samples;Min_cycle;Max_cycle;Signal;HPM_P1;HPM_P2
2022/10/27 00:01:59;;;;;;;14.60;3.92;;;13.00;99.90;;;;;;5069260;28;20133;-87
2022/10/27 00:04:25;;;;;;;15.02;3.92;;;13.00;99.90;;;;;;5068898;28;20043;-87
2022/10/27 00:06:51;;;;;;;13.90;3.92;;;13.60;99.90;;;;;;5052150;28;20087;-87
2022/10/27 00:09:16;;;;;;;13.77;3.58;;;12.90;99.90;;;;;;5052408;28;20040;-87
2022/10/27 00:11:42;;;;;;;11.73;3.60;;;12.90;99.90;;;;;;5035679;28;20181;-87
2022/10/27 00:14:08;;;;;;;18.48;3.80;;;13.50;99.90;;;;;;5069040;28;20052;-87
2022/10/27 00:16:33;;;;;;;11.30;3.08;;;13.40;99.90;;;;;;5068806;28;20044;-86
2022/10/27 00:19:00;;;;;;;15.95;3.88;;;13.00;99.90;;;;;;5069403;28;20127;-87
2022/10/27 00:21:26;;;;;;;17.45;3.17;;;13.00;99.90;;;;;;5068944;28;20109;-87
2022/10/27 00:23:51;;;;;;;11.60;3.40;;;13.30;99.90;;;;;;5068813;28;20475;-86
2022/10/27 00:26:19;;;;;;;11.48;3.17;;;13.60;99.90;;;;;;5068683;28;20131;-87
2022/10/27 00:28:45;;;;;;;11.75;3.17;;;13.10;99.90;;;;;;5051823;28;20046;-87
2022/10/27 00:31:17;;;;;;;11.38;3.30;;;13.10;99.90;;;;;;5068134;28;20129;-86
2022/10/27 00:33:45;;;;;;;9.65;3.28;;;13.10;99.90;;;;;;5068765;28;20534;-87
2022/10/27 00:36:13;;;;;;;14.77;3.65;;;13.10;99.90;;;;;;5052594;28;20403;-87
2022/10/27 00:38:40;;;;;;;15.88;4.38;;;13.20;99.90;;;;;;5051493;28;20086;-87
2022/10/27 00:41:16;;;;;;;15.13;3.70;;;13.20;99.90;;;;;;5052067;28;20051;-87
2022/10/27 00:43:41;;;;;;;11.57;3.38;;;13.50;99.90;;;;;;5069000;28;20048;-88
2022/10/27 00:46:16;;;;;;;12.45;3.40;;;12.40;99.90;;;;;;5072169;28;20117;-88
2022/10/27 00:48:42;;;;;;;14.23;4.07;;;13.20;99.90;;;;;;5077120;28;20098;-88
2022/10/27 00:51:10;;;;;;;12.10;3.80;;;13.20;99.90;;;;;;5060061;28;20036;-88
2022/10/27 00:53:35;;;;;;;14.77;3.55;;;13.20;99.90;;;;;;5059102;28;20040;-87
2022/10/27 00:56:02;;;;;;;13.35;3.67;;;13.30;99.90;;;;;;5074114;28;20185;-88
2022/10/27 00:58:28;;;;;;;11.50;4.40;;;13.20;99.90;;;;;;5072113;28;20101;-87
2022/10/27 01:00:54;;;;;;;11.55;3.78;;;13.20;99.90;;;;;;5070134;28;20511;-87
2022/10/27 01:03:22;;;;;;;18.38;5.28;;;14.20;99.90;;;;;;5068388;28;20089;-87
2022/10/27 01:05:50;;;;;;;13.52;5.60;;;14.30;99.90;;;;;;5069706;28;20051;-88
2022/10/27 01:08:16;;;;;;;17.05;5.43;;;13.20;99.90;;;;;;5068382;28;20554;-86
2022/10/27 01:10:42;;;;;;;22.25;4.95;;;13.80;99.90;;;;;;5068128;28;20048;-86
2022/10/27 01:13:08;;;;;;;16.90;4.75;;;13.30;99.90;;;;;;5067482;28;20515;-87
2022/10/27 01:15:44;;;;;;;14.55;5.38;;;13.80;99.90;;;;;;5067329;28;20570;-86
2022/10/27 01:18:27;;;;;;;9.65;4.05;;;14.10;99.90;;;;;;5067705;28;20118;-87
2022/10/27 01:21:17;;;;;;;14.20;3.97;;;13.30;99.90;;;;;;5067911;28;20399;-87
2022/10/27 01:24:05;;;;;;;13.80;5.38;;;13.30;99.90;;;;;;5067723;28;20117;-87
2022/10/27 01:26:56;;;;;;;10.05;5.55;;;13.30;99.90;;;;;;5067202;28;20044;-87
2022/10/27 01:29:32;;;;;;;15.38;4.72;;;13.30;99.90;;;;;;5050484;28;20395;-87
2022/10/27 01:32:50;;;;;;;18.23;5.43;;;13.40;99.90;;;;;;5043409;28;20044;-87
2022/10/27 01:35:51;;;;;;;11.10;5.13;;;13.40;99.90;;;;;;5080911;28;20052;-87
2022/10/27 01:38:28;;;;;;;11.50;4.80;;;13.40;99.90;;;;;;5067016;28;20450;-87
2022/10/27 01:41:17;;;;;;;16.90;4.82;;;13.40;99.90;;;;;;5066947;28;20051;-87
2022/10/27 01:43:46;;;;;;;18.73;4.97;;;13.40;99.90;;;;;;5067361;28;20554;-87
2022/10/27 01:46:13;;;;;;;13.48;5.50;;;13.40;99.90;;;;;;5067267;28;20048;-87
2022/10/27 01:48:39;;;;;;;11.77;5.07;;;13.40;99.90;;;;;;5050873;28;20106;-87
2022/10/27 01:51:06;;;;;;;16.85;5.47;;;13.50;99.90;;;;;;5066745;28;20036;-87
2022/10/27 01:53:38;;;;;;;17.40;6.05;;;13.50;99.90;;;;;;5067129;28;20055;-88
2022/10/27 01:56:03;;;;;;;14.98;5.80;;;13.50;99.90;;;;;;5066601;28;20068;-87
2022/10/27 01:58:47;;;;;;;19.35;5.40;;;13.60;99.90;;;;;;5066777;28;20048;-87
2022/10/27 02:01:44;;;;;;;16.92;5.43;;;13.60;99.90;;;;;;5067616;28;20048;-87
2022/10/27 02:04:29;;;;;;;15.13;5.43;;;13.60;99.90;;;;;;5066899;28;20050;-87
2022/10/27 02:07:13;;;;;;;19.67;5.78;;;13.60;99.90;;;;;;5066546;28;20178;-87
2022/10/27 02:09:53;;;;;;;15.65;5.47;;;13.60;99.90;;;;;;5066939;28;20079;-87
2022/10/27 02:12:35;;;;;;;16.60;6.18;;;13.50;99.90;;;;;;5050170;28;20056;-87
2022/10/27 02:15:05;;;;;;;18.67;6.28;;;13.60;99.90;;;;;;5067357;28;20422;-87
2022/10/27 02:17:38;;;;;;;14.73;7.28;;;13.60;99.90;;;;;;5066759;28;20044;-87
2022/10/27 02:20:11;;;;;;;15.43;6.45;;;13.60;99.90;;;;;;5066697;28;20679;-87
2022/10/27 02:22:38;;;;;;;21.92;6.03;;;13.60;99.90;;;;;;5066847;28;20162;-87
2022/10/27 02:25:04;;;;;;;16.98;6.38;;;13.60;99.90;;;;;;5066537;28;20048;-87
2022/10/27 02:27:38;;;;;;;13.95;6.13;;;13.60;99.90;;;;;;5050274;28;20044;-86
2022/10/27 02:30:05;;;;;;;19.85;6.32;;;13.60;99.90;;;;;;5067337;28;20084;-87
2022/10/27 02:32:32;;;;;;;13.43;5.53;;;13.60;99.90;;;;;;5066354;28;20105;-87
2022/10/27 02:35:07;;;;;;;14.35;5.90;;;14.30;99.90;;;;;;5066816;28;20414;-86
2022/10/27 02:37:38;;;;;;;14.77;5.63;;;13.60;99.90;;;;;;5066230;28;20044;-87
2022/10/27 02:40:05;;;;;;;12.65;5.40;;;13.80;99.90;;;;;;5066988;28;20056;-87
2022/10/27 02:42:30;;;;;;;14.00;5.60;;;13.60;99.90;;;;;;5066309;28;20036;-87
2022/10/27 02:44:56;;;;;;;15.95;6.00;;;13.70;99.90;;;;;;5049940;28;20089;-87
2022/10/27 02:47:22;;;;;;;10.60;5.47;;;13.70;99.90;;;;;;5066948;28;20051;-88
2022/10/27 02:49:47;;;;;;;15.98;6.45;;;13.70;99.90;;;;;;5049849;28;20034;-87
2022/10/27 02:52:13;;;;;;;11.63;6.07;;;14.70;99.90;;;;;;5066302;28;20056;-87
2022/10/27 02:54:40;;;;;;;16.75;6.38;;;13.70;99.90;;;;;;5070108;28;20051;-87
2022/10/27 02:57:06;;;;;;;19.13;6.55;;;13.70;99.90;;;;;;5054563;28;20056;-86
2022/10/27 02:59:31;;;;;;;16.58;6.53;;;13.70;99.90;;;;;;5071939;28;20054;-87
2022/10/27 03:01:57;;;;;;;16.77;7.25;;;13.30;99.90;;;;;;5071528;28;20048;-87
2022/10/27 03:04:23;;;;;;;20.40;6.00;;;13.60;99.90;;;;;;5055103;28;20472;-87
2022/10/27 03:06:48;;;;;;;13.48;7.47;;;13.70;99.90;;;;;;5054155;28;20043;-87
2022/10/27 03:09:14;;;;;;;18.45;6.18;;;13.60;99.90;;;;;;5070817;28;20040;-87
2022/10/27 03:11:40;;;;;;;16.63;6.38;;;13.60;99.90;;;;;;5071144;28;20090;-86
2022/10/27 03:14:05;;;;;;;12.70;5.95;;;14.50;99.90;;;;;;5071120;28;20052;-87
2022/10/27 03:16:31;;;;;;;12.18;6.50;;;13.60;99.90;;;;;;5070296;28;20047;-87
2022/10/27 03:18:57;;;;;;;21.65;6.75;;;14.30;99.90;;;;;;5070633;28;20044;-87
2022/10/27 03:21:22;;;;;;;13.13;6.00;;;13.60;99.90;;;;;;5070274;28;20036;-86
2022/10/27 03:23:48;;;;;;;15.52;6.85;;;13.60;99.90;;;;;;5053909;28;20066;-87
2022/10/27 03:26:14;;;;;;;14.00;6.97;;;13.50;99.90;;;;;;5069546;28;20048;-87
2022/10/27 03:28:40;;;;;;;16.20;6.40;;;13.50;99.90;;;;;;5069579;28;20040;-87
2022/10/27 03:31:06;;;;;;;13.60;6.25;;;13.50;99.90;;;;;;5036301;28;20044;-87
2022/10/27 03:33:32;;;;;;;9.55;6.22;;;13.50;99.90;;;;;;5053337;28;20051;-88
2022/10/27 03:35:58;;;;;;;14.20;5.97;;;14.00;99.90;;;;;;5070551;28;20474;-87
2022/10/27 03:38:24;;;;;;;9.45;5.90;;;13.80;99.90;;;;;;5053015;28;20081;-87
2022/10/27 03:40:50;;;;;;;17.40;6.28;;;13.70;99.90;;;;;;5069842;28;20044;-87
2022/10/27 03:43:15;;;;;;;18.10;6.63;;;13.60;99.90;;;;;;5053198;28;20105;-87
2022/10/27 03:45:41;;;;;;;16.33;7.13;;;13.70;99.90;;;;;;5069773;28;20040;-87
2022/10/27 03:48:11;;;;;;;14.93;5.82;;;14.60;99.90;;;;;;5069963;28;20131;-87
2022/10/27 03:50:38;;;;;;;15.40;7.07;;;13.70;99.90;;;;;;5069985;28;20131;-87
2022/10/27 03:53:04;;;;;;;13.27;6.53;;;13.70;99.90;;;;;;5070395;28;20058;-87
2022/10/27 03:55:31;;;;;;;19.45;6.20;;;13.70;99.90;;;;;;5069738;28;20832;-87
2022/10/27 03:57:57;;;;;;;13.85;6.63;;;13.80;99.90;;;;;;5070296;28;20048;-86
2022/10/27 04:00:24;;;;;;;17.13;7.43;;;13.70;99.90;;;;;;5071557;28;20051;-86
2022/10/27 04:02:53;;;;;;;16.73;6.68;;;13.70;99.90;;;;;;5053816;28;20098;-87
2022/10/27 04:05:19;;;;;;;12.60;6.00;;;13.70;99.90;;;;;;5068583;28;20493;-87
2022/10/27 04:07:45;;;;;;;15.63;6.97;;;14.00;99.90;;;;;;5052036;28;20176;-87
2022/10/27 04:10:11;;;;;;;13.38;6.85;;;13.70;99.90;;;;;;5069888;28;20083;-88
2022/10/27 04:12:37;;;;;;;16.42;6.57;;;13.70;99.90;;;;;;5052487;28;20051;-87
2022/10/27 04:15:03;;;;;;;17.33;6.63;;;13.70;99.90;;;;;;5052256;28;20145;-87
2022/10/27 04:17:29;;;;;;;20.80;7.15;;;13.70;99.90;;;;;;5068854;28;20044;-87
2022/10/27 04:19:54;;;;;;;19.50;8.10;;;13.60;99.90;;;;;;5051594;28;20044;-86
2022/10/27 04:22:20;;;;;;;15.38;7.30;;;13.60;99.90;;;;;;5069015;28;20127;-86
2022/10/27 04:24:46;;;;;;;18.63;7.53;;;13.60;99.90;;;;;;5068931;28;20047;-87
2022/10/27 04:27:11;;;;;;;17.98;7.70;;;13.90;99.90;;;;;;5068885;28;20103;-87
2022/10/27 04:29:37;;;;;;;12.85;7.47;;;14.20;99.90;;;;;;5068398;28;20040;-87
2022/10/27 04:32:03;;;;;;;15.38;7.38;;;13.60;99.90;;;;;;5051948;28;20142;-87
2022/10/27 04:34:28;;;;;;;10.98;7.32;;;13.60;99.90;;;;;;5068821;28;20040;-90
2022/10/27 04:36:54;;;;;;;14.45;7.45;;;13.50;99.90;;;;;;5051787;28;20048;-87
2022/10/27 04:39:20;;;;;;;14.38;7.20;;;14.40;99.90;;;;;;5052516;28;20095;-87
2022/10/27 04:41:46;;;;;;;15.63;7.10;;;14.40;99.90;;;;;;5051947;28;20086;-86
2022/10/27 04:44:11;;;;;;;13.88;7.88;;;13.40;99.90;;;;;;5052537;28;20083;-85
2022/10/27 04:46:37;;;;;;;14.05;8.60;;;13.40;99.90;;;;;;5069407;28;20036;-93
2022/10/27 04:49:03;;;;;;;18.45;8.73;;;13.60;99.90;;;;;;5052867;28;20472;-87
2022/10/27 04:51:29;;;;;;;20.52;8.15;;;13.40;99.90;;;;;;5051660;28;20153;-86
2022/10/27 04:53:54;;;;;;;19.95;7.78;;;14.10;99.90;;;;;;5068072;28;20484;-88
2022/10/27 04:56:20;;;;;;;15.15;8.02;;;13.30;99.90;;;;;;5051014;28;20056;-86
2022/10/27 04:58:46;;;;;;;17.73;7.93;;;13.30;99.90;;;;;;5067910;28;20044;-87
2022/10/27 05:01:13;;;;;;;17.90;8.30;;;13.30;99.90;;;;;;5067928;28;20051;-88
2022/10/27 05:03:39;;;;;;;15.52;7.35;;;13.30;99.90;;;;;;5068077;28;20048;-89
2022/10/27 05:06:05;;;;;;;21.17;9.25;;;13.50;99.90;;;;;;5051680;28;20042;-88
2022/10/27 05:08:32;;;;;;;18.13;8.02;;;13.20;99.90;;;;;;5051967;28;20084;-89
2022/10/27 05:10:57;;;;;;;15.60;8.25;;;13.20;99.90;;;;;;5051089;28;20043;-88
2022/10/27 05:13:23;;;;;;;14.88;9.07;;;13.20;99.90;;;;;;5068075;28;20043;-88
2022/10/27 05:15:49;;;;;;;18.83;8.88;;;13.20;99.90;;;;;;5050483;28;20118;-86
2022/10/27 05:18:15;;;;;;;15.80;9.30;;;13.80;99.90;;;;;;5051210;28;20143;-89
2022/10/27 05:20:40;;;;;;;17.15;8.57;;;13.80;99.90;;;;;;5067553;28;20280;-87
2022/10/27 05:23:06;;;;;;;15.25;8.88;;;13.10;99.90;;;;;;5051626;28;20070;-88
2022/10/27 05:25:33;;;;;;;15.25;8.27;;;13.00;99.90;;;;;;5051387;28;20481;-87
2022/10/27 05:28:06;;;;;;;14.27;8.82;;;12.90;99.90;;;;;;5067836;28;20044;-87
2022/10/27 05:30:32;;;;;;;15.43;8.75;;;13.00;99.90;;;;;;5051689;28;20087;-87
2022/10/27 05:32:58;;;;;;;17.52;8.13;;;12.90;99.90;;;;;;5051534;28;20067;-91
2022/10/27 05:35:23;;;;;;;17.88;8.05;;;12.90;99.90;;;;;;5054100;28;20425;-91
2022/10/27 05:37:49;;;;;;;15.55;8.32;;;12.90;99.90;;;;;;5069411;28;20100;-92
2022/10/27 05:40:15;;;;;;;19.23;8.20;;;13.00;99.90;;;;;;5076338;28;20055;-91
2022/10/27 05:42:49;;;;;;;17.35;8.07;;;13.50;99.90;;;;;;5053507;28;20044;-92
2022/10/27 05:45:15;;;;;;;11.75;7.75;;;13.00;99.90;;;;;;5067290;28;20106;-87
2022/10/27 05:47:41;;;;;;;16.85;8.13;;;13.00;99.90;;;;;;5050485;28;20853;-91
2022/10/27 05:50:07;;;;;;;17.80;8.43;;;13.20;99.90;;;;;;5068604;28;20086;-89
2022/10/27 05:52:32;;;;;;;15.82;8.45;;;12.90;99.90;;;;;;5034016;28;20123;-89
2022/10/27 05:54:58;;;;;;;18.17;8.85;;;13.00;99.90;;;;;;5067305;28;20046;-91
2022/10/27 05:57:24;;;;;;;22.80;9.00;;;13.00;99.90;;;;;;5067275;28;20052;-86
2022/10/27 05:59:49;;;;;;;20.95;9.10;;;13.00;99.90;;;;;;5050962;28;20052;-88
2022/10/27 06:02:15;;;;;;;19.20;8.38;;;13.10;99.90;;;;;;5050915;28;20043;-91
2022/10/27 06:04:41;;;;;;;14.52;8.70;;;13.30;99.90;;;;;;5067917;28;20083;-91
2022/10/27 06:07:07;;;;;;;19.02;9.15;;;13.60;99.90;;;;;;5067486;28;20142;-90
2022/10/27 06:09:32;;;;;;;21.30;8.88;;;13.10;99.90;;;;;;5050967;28;20069;-90
2022/10/27 06:11:58;;;;;;;15.82;8.27;;;13.10;99.90;;;;;;5067662;28;20048;-90
2022/10/27 06:14:24;;;;;;;17.58;9.60;;;13.10;99.90;;;;;;5035162;28;20135;-90
2022/10/27 06:16:49;;;;;;;22.98;9.00;;;13.10;99.90;;;;;;5067443;28;20076;-90
2022/10/27 06:19:15;;;;;;;18.27;8.82;;;13.50;99.90;;;;;;5067487;28;20040;-90
2022/10/27 06:21:40;;;;;;;13.02;8.75;;;13.40;99.90;;;;;;5068100;28;20044;-89
2022/10/27 06:24:06;;;;;;;15.75;9.20;;;13.10;99.90;;;;;;5067766;28;20043;-90
2022/10/27 06:26:32;;;;;;;17.75;9.10;;;13.10;99.90;;;;;;5051877;28;20044;-90
2022/10/27 06:28:58;;;;;;;14.15;9.40;;;13.30;99.90;;;;;;5058984;28;20051;-90
2022/10/27 06:31:23;;;;;;;18.90;9.48;;;13.30;99.90;;;;;;5056905;28;20059;-88
2022/10/27 06:33:49;;;;;;;21.15;10.65;;;13.30;99.90;;;;;;5054318;28;20103;-90
2022/10/27 06:36:14;;;;;;;15.05;8.93;;;13.10;99.90;;;;;;5096548;28;20028;-89
2022/10/27 06:38:40;;;;;;;18.27;11.10;;;13.10;99.90;;;;;;5078151;28;20036;-89
2022/10/27 06:41:06;;;;;;;13.43;9.38;;;13.10;99.90;;;;;;5078981;28;20070;-90
2022/10/27 06:43:31;;;;;;;20.30;9.40;;;13.10;99.90;;;;;;5079452;28;20048;-89
2022/10/27 06:45:57;;;;;;;24.55;9.60;;;13.70;99.90;;;;;;5096781;28;20039;-89
2022/10/27 06:48:23;;;;;;;15.13;9.52;;;13.10;99.90;;;;;;5080559;28;20024;-89
2022/10/27 06:50:48;;;;;;;14.35;9.73;;;13.20;99.90;;;;;;5096653;28;20051;-89
2022/10/27 06:53:17;;;;;;;14.18;9.48;;;13.20;99.90;;;;;;5096828;28;20089;-90
2022/10/27 06:55:43;;;;;;;19.98;11.30;;;13.30;99.90;;;;;;5096650;28;20036;-89
2022/10/27 06:58:08;;;;;;;16.10;8.88;;;13.20;99.90;;;;;;5079026;28;20028;-89
2022/10/27 07:00:36;;;;;;;20.25;10.20;;;13.20;99.90;;;;;;5063397;28;20048;-89
2022/10/27 07:03:09;;;;;;;18.80;9.73;;;13.30;99.90;;;;;;5066634;28;20092;-90
2022/10/27 07:05:35;;;;;;;13.80;9.50;;;13.30;99.90;;;;;;5073668;28;20047;-90
2022/10/27 07:08:01;;;;;;;16.65;9.52;;;14.00;99.90;;;;;;5056215;28;20044;-90
2022/10/27 07:10:26;;;;;;;14.90;9.63;;;13.70;99.90;;;;;;5073562;28;20067;-90
2022/10/27 07:12:57;;;;;;;14.85;9.95;;;13.30;99.90;;;;;;5057130;28;20044;-90
2022/10/27 07:15:25;;;;;;;15.27;9.18;;;13.40;99.90;;;;;;5073558;28;20047;-89
2022/10/27 07:17:56;;;;;;;19.85;9.25;;;13.40;99.90;;;;;;5073200;28;20043;-88
2022/10/27 07:20:23;;;;;;;26.58;10.20;;;13.90;99.90;;;;;;5055041;28;20082;-89
2022/10/27 07:22:49;;;;;;;16.02;8.65;;;13.50;99.90;;;;;;5071954;28;20040;-89
2022/10/27 07:25:14;;;;;;;13.38;9.63;;;13.50;99.90;;;;;;5053937;28;20135;-89
2022/10/27 07:27:40;;;;;;;21.08;9.27;;;13.50;99.90;;;;;;5053981;28;20123;-89
2022/10/27 07:30:06;;;;;;;17.42;8.88;;;13.50;99.90;;;;;;5053569;28;20125;-88
2022/10/27 07:32:32;;;;;;;14.30;8.70;;;13.50;99.90;;;;;;5069154;28;20498;-88
2022/10/27 07:34:58;;;;;;;16.45;8.60;;;13.50;99.90;;;;;;5070341;28;20075;-88
2022/10/27 07:37:23;;;;;;;15.20;8.88;;;13.50;99.90;;;;;;5070046;28;20109;-87
2022/10/27 07:39:49;;;;;;;14.95;7.65;;;13.70;99.90;;;;;;5053052;28;20062;-88
2022/10/27 07:42:16;;;;;;;14.30;8.50;;;13.60;99.90;;;;;;5053239;28;20036;-88
2022/10/27 07:44:42;;;;;;;16.13;7.68;;;13.60;99.90;;;;;;5039183;28;20044;-88
2022/10/27 07:47:08;;;;;;;11.20;7.88;;;13.70;99.90;;;;;;5072211;28;20048;-89
2022/10/27 07:49:34;;;;;;;15.82;8.25;;;13.70;99.90;;;;;;5040563;28;20052;-89
2022/10/27 07:51:59;;;;;;;13.93;8.55;;;13.70;99.90;;;;;;5072741;28;20083;-88
2022/10/27 07:54:25;;;;;;;19.15;8.90;;;14.60;99.90;;;;;;5073163;28;20487;-89
2022/10/27 07:56:51;;;;;;;18.77;8.27;;;13.80;99.90;;;;;;5072448;28;20137;-91
2022/10/27 07:59:17;;;;;;;17.02;8.18;;;13.90;99.90;;;;;;5039544;28;20051;-90
2022/10/27 08:01:42;;;;;;;16.95;7.45;;;13.90;99.90;;;;;;5055300;28;20395;-90
2022/10/27 08:04:08;;;;;;;12.82;7.03;;;13.90;99.90;;;;;;5065088;28;20040;-91
2022/10/27 08:06:34;;;;;;;12.20;6.50;;;14.00;99.90;;;;;;5051592;28;20411;-91
2022/10/27 08:08:59;;;;;;;11.10;6.20;;;14.20;99.90;;;;;;5062015;28;20098;-89
2022/10/27 08:11:25;;;;;;;14.18;7.07;;;14.20;99.90;;;;;;5055454;28;20119;-90
2022/10/27 08:13:52;;;;;;;11.00;6.18;;;14.30;99.90;;;;;;5077927;28;20127;-90
2022/10/27 08:16:18;;;;;;;11.80;6.80;;;14.40;99.90;;;;;;5076717;28;20040;-90
2022/10/27 08:18:44;;;;;;;13.50;6.45;;;14.50;99.90;;;;;;5094001;28;20047;-90
2022/10/27 08:21:09;;;;;;;11.50;6.25;;;14.50;99.90;;;;;;5077200;28;20033;-90
2022/10/27 08:23:35;;;;;;;9.55;6.05;;;14.60;99.90;;;;;;5091438;28;20032;-89
2022/10/27 08:26:01;;;;;;;14.55;6.05;;;15.00;99.90;;;;;;5048490;28;20487;-87
2022/10/27 08:28:26;;;;;;;14.95;5.40;;;14.90;99.90;;;;;;5055877;28;20503;-89
2022/10/27 08:30:52;;;;;;;15.05;5.57;;;15.00;99.90;;;;;;5056950;28;20393;-88
2022/10/27 08:33:21;;;;;;;10.35;5.00;;;15.10;99.90;;;;;;5058056;28;20063;-90
2022/10/27 08:35:46;;;;;;;13.27;5.32;;;15.20;99.90;;;;;;5057548;28;20044;-92
2022/10/27 08:38:15;;;;;;;8.40;5.13;;;15.20;99.90;;;;;;5073714;28;20048;-90
2022/10/27 08:40:43;;;;;;;11.43;5.25;;;15.70;99.90;;;;;;5089272;28;20036;-92
2022/10/27 08:43:31;;;;;;;18.55;5.53;;;15.20;99.90;;;;;;5070888;28;20044;-92
2022/10/27 08:46:35;;;;;;;9.45;5.07;;;15.30;99.90;;;;;;5069279;28;20048;-91
2022/10/27 08:49:03;;;;;;;10.10;4.70;;;15.30;99.90;;;;;;5042636;28;20080;-91
2022/10/27 08:51:32;;;;;;;11.45;4.80;;;15.30;99.90;;;;;;5052352;28;20111;-92
2022/10/27 08:53:58;;;;;;;15.88;5.05;;;16.00;99.90;;;;;;5069613;28;20441;-92
2022/10/27 08:56:29;;;;;;;10.45;5.28;;;15.50;99.90;;;;;;5069652;28;20064;-91
2022/10/27 08:58:55;;;;;;;10.60;5.10;;;15.60;99.90;;;;;;5068696;28;20075;-92
2022/10/27 09:01:50;;;;;;;9.23;4.75;;;15.70;99.90;;;;;;5053158;28;20080;-91
2022/10/27 09:04:19;;;;;;;12.55;4.80;;;15.80;99.90;;;;;;5069386;28;20087;-90
2022/10/27 09:07:03;;;;;;;12.77;4.00;;;15.90;99.90;;;;;;5068268;28;20051;-91
2022/10/27 09:09:40;;;;;;;9.80;4.85;;;16.00;99.90;;;;;;5070013;28;20482;-91
2022/10/27 09:12:21;;;;;;;10.15;4.03;;;16.20;99.90;;;;;;5068702;28;20037;-90
2022/10/27 09:15:18;;;;;;;22.27;5.22;;;16.30;99.90;;;;;;5068676;28;20050;-92
2022/10/27 09:17:49;;;;;;;10.15;4.50;;;16.40;99.90;;;;;;5052739;28;20044;-91
2022/10/27 09:20:30;;;;;;;7.20;4.50;;;16.50;99.90;;;;;;5068641;28;20047;-91
2022/10/27 09:22:58;;;;;;;9.20;4.57;;;16.60;99.90;;;;;;5068647;28;20044;-91
2022/10/27 09:25:24;;;;;;;17.60;4.53;;;16.70;99.90;;;;;;5068758;28;20097;-91
2022/10/27 09:27:53;;;;;;;11.88;4.18;;;16.80;99.90;;;;;;5068587;28;20048;-91
2022/10/27 09:30:18;;;;;;;8.63;3.78;;;16.80;99.90;;;;;;5053134;28;20056;-91
2022/10/27 09:32:50;;;;;;;10.80;3.78;;;17.00;99.90;;;;;;5067927;28;20450;-92
2022/10/27 09:35:20;;;;;;;11.50;3.55;;;17.00;99.90;;;;;;5069038;28;20052;-92
2022/10/27 09:37:46;;;;;;;13.07;3.22;;;17.00;99.90;;;;;;5052157;28;20044;-91
2022/10/27 09:40:15;;;;;;;9.93;2.92;;;17.00;99.90;;;;;;5035493;28;20044;-90
2022/10/27 09:42:41;;;;;;;10.52;3.17;;;17.00;99.90;;;;;;5067980;28;20241;-90
2022/10/27 09:45:16;;;;;;;9.48;3.15;;;17.10;99.90;;;;;;5067586;28;20051;-90
2022/10/27 09:47:46;;;;;;;11.63;2.72;;;17.10;99.90;;;;;;5068453;28;20509;-91
2022/10/27 09:50:22;;;;;;;7.60;3.30;;;17.20;99.90;;;;;;5051901;28;20044;-90
2022/10/27 09:52:49;;;;;;;11.10;2.80;;;17.20;99.90;;;;;;5068103;28;20088;-91
2022/10/27 09:55:16;;;;;;;6.53;2.85;;;17.30;99.90;;;;;;5068021;28;20039;-90
2022/10/27 09:57:43;;;;;;;8.68;2.60;;;17.80;99.90;;;;;;5067686;28;20204;-92
2022/10/27 10:00:25;;;;;;;10.98;3.40;;;17.40;99.90;;;;;;5068392;28;20052;-92
2022/10/27 10:03:20;;;;;;;8.73;3.33;;;17.50;99.90;;;;;;5068052;28;20492;-91
2022/10/27 10:06:00;;;;;;;17.23;3.47;;;17.50;99.90;;;;;;5051564;28;20051;-87
2022/10/27 10:08:29;;;;;;;13.57;3.33;;;17.60;99.90;;;;;;5084496;28;20076;-88
2022/10/27 10:11:00;;;;;;;9.50;3.25;;;17.60;99.90;;;;;;5067718;28;20071;-89
2022/10/27 10:13:55;;;;;;;8.60;2.53;;;17.60;99.90;;;;;;5052139;28;20048;-89
2022/10/27 10:16:21;;;;;;;8.10;2.83;;;17.60;99.90;;;;;;5058643;28;20131;-86
2022/10/27 10:19:15;;;;;;;5.57;2.65;;;17.70;99.90;;;;;;5067333;28;20076;-86
2022/10/27 10:21:53;;;;;;;10.48;2.75;;;17.70;99.90;;;;;;5067751;28;20349;-93
2022/10/27 10:24:35;;;;;;;4.82;2.28;;;17.70;99.90;;;;;;5067537;28;20467;-92
2022/10/27 10:27:04;;;;;;;6.28;2.15;;;17.80;99.90;;;;;;5071618;28;20067;-87
2022/10/27 10:29:48;;;;;;;8.52;2.17;;;17.80;99.90;;;;;;5051593;28;20488;-89
2022/10/27 10:32:22;;;;;;;6.30;2.40;;;17.90;99.90;;;;;;5067305;28;20073;-89
2022/10/27 10:34:50;;;;;;;7.97;2.33;;;18.00;99.90;;;;;;5068146;28;20059;-89
2022/10/27 10:37:30;;;;;;;7.85;1.95;;;18.10;99.90;;;;;;5067310;28;20117;-90
2022/10/27 10:40:17;;;;;;;5.43;1.63;;;18.20;99.90;;;;;;5068120;28;20131;-90
2022/10/27 10:42:58;;;;;;;8.25;1.88;;;18.20;99.90;;;;;;5070753;28;20036;-90
2022/10/27 10:45:26;;;;;;;4.60;1.95;;;18.30;99.90;;;;;;5070228;28;20094;-90
2022/10/27 10:48:07;;;;;;;8.23;1.75;;;18.30;99.90;;;;;;5072077;28;20498;-90
2022/10/27 10:50:46;;;;;;;6.38;1.98;;;18.40;99.90;;;;;;5071299;28;20055;-90
2022/10/27 10:53:28;;;;;;;5.60;1.60;;;18.40;99.90;;;;;;5071730;28;20044;-91
2022/10/27 10:55:56;;;;;;;8.18;1.73;;;18.50;99.90;;;;;;5071488;28;20097;-91
2022/10/27 10:58:24;;;;;;;5.47;1.25;;;18.50;99.90;;;;;;5069782;28;20526;-91
2022/10/27 11:01:01;;;;;;;8.80;1.73;;;18.60;99.90;;;;;;5071000;28;20063;-90
2022/10/27 11:03:31;;;;;;;7.53;1.08;;;18.70;99.90;;;;;;5068807;28;20090;-91
2022/10/27 11:06:00;;;;;;;7.65;1.42;;;18.80;99.90;;;;;;5052783;28;20054;-91
2022/10/27 11:08:41;;;;;;;9.52;1.27;;;18.90;99.90;;;;;;5069427;28;20044;-92
2022/10/27 11:11:19;;;;;;;3.53;1.40;;;19.10;99.90;;;;;;5068090;28;20406;-90
2022/10/27 11:14:01;;;;;;;3.75;0.70;;;19.20;99.90;;;;;;5068570;28;20523;-92
2022/10/27 11:16:30;;;;;;;8.75;0.95;;;19.30;99.90;;;;;;5070534;28;20093;-91
2022/10/27 11:19:03;;;;;;;5.78;1.30;;;19.30;99.90;;;;;;5071621;28;20040;-89
2022/10/27 11:21:42;;;;;;;2.72;1.00;;;19.30;99.90;;;;;;5054103;28;20048;-89
2022/10/27 11:24:14;;;;;;;6.45;0.90;;;19.30;99.90;;;;;;5070735;28;20040;-90
2022/10/27 11:27:03;;;;;;;2.60;0.93;;;19.40;99.90;;;;;;5071690;28;20044;-89
2022/10/27 11:29:39;;;;;;;5.75;0.90;;;19.50;99.90;;;;;;5056888;28;20144;-90
2022/10/27 11:32:28;;;;;;;2.35;0.77;;;19.50;99.90;;;;;;5071136;28;20055;-90
2022/10/27 11:35:19;;;;;;;4.72;0.80;;;19.60;99.90;;;;;;5071324;28;20065;-90
2022/10/27 11:37:50;;;;;;;8.57;1.15;;;19.70;99.90;;;;;;5070824;28;20048;-89
2022/10/27 11:40:25;;;;;;;4.75;0.80;;;19.70;99.90;;;;;;5070861;28;20044;-89
2022/10/27 11:43:08;;;;;;;4.65;0.95;;;19.70;99.90;;;;;;5053935;28;20518;-88
2022/10/27 11:45:36;;;;;;;4.18;1.10;;;19.80;99.90;;;;;;5070396;28;20052;-90
2022/10/27 11:48:25;;;;;;;3.80;0.50;;;19.90;99.90;;;;;;5071517;28;20048;-89
2022/10/27 11:51:25;;;;;;;2.00;0.75;;;19.90;99.90;;;;;;5040134;28;20055;-90
2022/10/27 11:53:51;;;;;;;5.55;1.48;;;20.10;99.90;;;;;;5070798;28;20611;-91
2022/10/27 11:56:28;;;;;;;5.50;0.80;;;20.30;99.90;;;;;;5054120;28;20087;-92
2022/10/27 11:59:07;;;;;;;4.88;1.00;;;20.30;99.90;;;;;;5070214;28;20058;-91
2022/10/27 12:01:38;;;;;;;5.75;1.05;;;20.30;99.90;;;;;;5071031;28;20048;-91
2022/10/27 12:04:13;;;;;;;3.33;0.85;;;20.40;99.90;;;;;;5070490;28;20499;-90
2022/10/27 12:06:46;;;;;;;6.43;1.00;;;20.50;99.90;;;;;;5070397;28;20124;-91
2022/10/27 12:09:33;;;;;;;5.25;1.10;;;20.70;99.90;;;;;;5071101;28;20127;-91
2022/10/27 12:12:34;;;;;;;5.03;0.70;;;20.70;99.90;;;;;;5070096;28;20117;-92
2022/10/27 12:15:03;;;;;;;3.50;1.20;;;20.80;99.90;;;;;;5053575;28;20052;-91
2022/10/27 12:17:44;;;;;;;3.42;1.10;;;20.80;99.90;;;;;;5070945;28;20044;-90
2022/10/27 12:20:15;;;;;;;5.40;1.02;;;20.70;99.90;;;;;;5070170;28;20077;-91
2022/10/27 12:23:13;;;;;;;4.05;0.90;;;20.70;99.90;;;;;;5054563;28;20531;-91
2022/10/27 12:26:06;;;;;;;5.82;1.00;;;20.70;99.90;;;;;;5069736;28;20056;-91
2022/10/27 12:28:34;;;;;;;3.88;0.80;;;20.70;99.90;;;;;;5052921;28;20055;-91
2022/10/27 12:31:03;;;;;;;6.28;1.02;;;20.80;99.90;;;;;;5072285;28;20062;-91
2022/10/27 12:33:49;;;;;;;2.17;0.93;;;20.80;99.90;;;;;;5074324;28;20066;-91
2022/10/27 12:36:49;;;;;;;3.47;1.00;;;20.80;99.90;;;;;;5063210;28;20052;-91
2022/10/27 12:39:21;;;;;;;6.45;1.13;;;20.90;99.90;;;;;;5077513;28;20063;-90
2022/10/27 12:42:25;;;;;;;7.40;0.97;;;20.70;99.90;;;;;;5079529;28;20522;-91
2022/10/27 12:45:12;;;;;;;7.15;0.80;;;20.60;99.90;;;;;;5082358;28;20040;-92
2022/10/27 12:48:20;;;;;;;6.65;0.80;;;20.60;99.90;;;;;;5081304;28;20070;-91
2022/10/27 12:51:29;;;;;;;7.32;0.77;;;20.60;99.90;;;;;;5062137;28;20044;-91
2022/10/27 12:54:11;;;;;;;3.50;0.88;;;20.50;99.90;;;;;;5078380;28;20055;-90
2022/10/27 12:56:49;;;;;;;2.07;0.67;;;20.50;99.90;;;;;;5061503;28;20090;-91
2022/10/27 12:59:29;;;;;;;9.55;1.23;;;20.60;99.90;;;;;;5069507;28;20048;-90